Time;durP1;ratioP1;P1;durP2;ratioP2;P2;SDS_P1;SDS_P2;PMS_P1;PMS_P2;Temp;Humidity;BMP_temperature;BMP_pressure;BME280_temperature;BME280_humidity;BME280_pressure;Samples;Min_cycle;Max_cycle;Signal;HPM_P1;HPM_P2
2023/10/30 00:01:24;;;;;;;4.45;1.73;;;19.90;61.50;;;;;;5064764;28;20045;-33
2023/10/30 00:03:52;;;;;;;3.10;1.50;;;20.50;80.20;;;;;;5053832;28;20527;-37
2023/10/30 00:06:18;;;;;;;3.22;1.45;;;19.40;73.10;;;;;;5054045;28;20071;-35
2023/10/30 00:08:45;;;;;;;4.22;1.60;;;20.90;80.50;;;;;;5053743;28;20106;-36
2023/10/30 00:11:12;;;;;;;4.20;1.98;;;19.90;80.40;;;;;;5053282;28;20049;-38
2023/10/30 00:13:39;;;;;;;3.35;1.60;;;20.00;73.80;;;;;;5053888;28;20080;-34
2023/10/30 00:16:06;;;;;;;3.67;1.60;;;19.80;76.40;;;;;;5053964;28;20049;-34
2023/10/30 00:18:34;;;;;;;3.20;1.42;;;19.40;64.80;;;;;;5053498;28;20049;-34
2023/10/30 00:21:01;;;;;;;3.25;1.30;;;20.10;72.20;;;;;;5053627;28;20061;-34
2023/10/30 00:23:28;;;;;;;2.30;1.17;;;19.70;80.00;;;;;;5053579;28;20110;-34
2023/10/30 00:25:56;;;;;;;4.72;1.55;;;19.90;77.20;;;;;;5053497;28;20063;-36
2023/10/30 00:28:23;;;;;;;3.35;1.40;;;19.80;72.20;;;;;;5053479;28;20053;-34
2023/10/30 00:30:50;;;;;;;4.82;1.52;;;20.00;80.20;;;;;;5053740;28;20126;-34
2023/10/30 00:33:17;;;;;;;3.10;1.40;;;19.90;80.20;;;;;;5053570;28;20099;-35
2023/10/30 00:35:46;;;;;;;3.35;1.40;;;19.40;80.00;;;;;;5053177;28;20060;-33
2023/10/30 00:38:12;;;;;;;3.25;1.40;;;19.40;80.10;;;;;;5092121;28;20079;-34
2023/10/30 00:40:39;;;;;;;3.22;1.52;;;;;;;;;;5093743;28;20117;-32
2023/10/30 00:43:07;;;;;;;3.85;1.60;;;;;;;;;;5093606;28;20083;-35
2023/10/30 00:45:34;;;;;;;3.70;1.40;;;;;;;;;;5093510;28;20408;-31
2023/10/30 00:48:00;;;;;;;4.70;1.35;;;19.80;80.70;;;;;;5093104;28;20105;-36
2023/10/30 00:50:27;;;;;;;2.42;1.27;;;20.80;80.80;;;;;;5093342;28;20076;-36
2023/10/30 00:52:55;;;;;;;3.20;1.60;;;19.60;61.90;;;;;;5093265;28;20074;-34
2023/10/30 00:55:22;;;;;;;3.85;1.58;;;19.30;72.00;;;;;;5083703;28;20141;-33
2023/10/30 00:57:49;;;;;;;3.38;1.20;;;19.10;80.30;;;;;;5072983;28;20088;-35
2023/10/30 01:00:16;;;;;;;2.53;1.25;;;;;;;;;;5072989;28;20101;-34
2023/10/30 01:02:44;;;;;;;2.40;1.33;;;19.90;80.80;;;;;;5052954;28;20049;-33
2023/10/30 01:05:11;;;;;;;2.63;1.30;;;19.40;72.20;;;;;;5052518;28;20045;-36
2023/10/30 01:07:38;;;;;;;2.90;1.33;;;18.90;80.30;;;;;;5052568;28;20080;-33
2023/10/30 01:10:07;;;;;;;2.70;1.30;;;19.20;73.70;;;;;;5053018;28;20077;-33
2023/10/30 01:12:34;;;;;;;3.38;1.48;;;;;;;;;;5052839;28;20044;-34
2023/10/30 01:15:00;;;;;;;3.40;1.60;;;19.20;70.20;;;;;;5052616;28;20052;-34
2023/10/30 01:17:28;;;;;;;3.25;1.40;;;;;;;;;;5052355;28;20084;-34
2023/10/30 01:19:55;;;;;;;2.55;1.25;;;;;;;;;;5052342;28;20118;-33
2023/10/30 01:22:21;;;;;;;2.83;1.35;;;19.10;81.10;;;;;;5052692;28;20068;-33
2023/10/30 01:24:49;;;;;;;2.58;1.30;;;;;;;;;;5051778;28;20077;-33
2023/10/30 01:27:17;;;;;;;2.28;1.30;;;19.40;65.30;;;;;;5052218;28;20410;-35
2023/10/30 01:29:43;;;;;;;3.15;1.48;;;20.40;62.80;;;;;;5052475;28;20085;-36
2023/10/30 01:32:10;;;;;;;1.85;1.15;;;19.40;80.70;;;;;;5052241;28;20076;-32
2023/10/30 01:34:37;;;;;;;2.45;1.30;;;20.60;74.00;;;;;;5052027;28;20041;-31
2023/10/30 01:37:04;;;;;;;2.13;1.20;;;18.60;80.40;;;;;;5072256;28;20044;-34
2023/10/30 01:39:31;;;;;;;2.88;1.33;;;;;;;;;;5092357;28;20075;-31
2023/10/30 01:41:58;;;;;;;2.53;1.30;;;19.80;80.70;;;;;;5092565;28;20083;-34
2023/10/30 01:44:26;;;;;;;2.55;1.20;;;19.50;80.90;;;;;;5092176;28;20044;-35
2023/10/30 01:46:53;;;;;;;3.72;1.42;;;18.40;80.10;;;;;;5092412;28;20047;-34
2023/10/30 01:49:19;;;;;;;4.10;1.50;;;19.20;74.30;;;;;;5092189;28;20047;-35
2023/10/30 01:51:46;;;;;;;3.40;1.45;;;19.40;80.60;;;;;;5081785;28;20052;-33
2023/10/30 01:54:13;;;;;;;2.95;1.30;;;;;;;;;;5071796;28;20076;-30
2023/10/30 01:56:40;;;;;;;3.15;1.27;;;19.20;80.80;;;;;;5072104;28;20102;-34
2023/10/30 01:59:07;;;;;;;2.20;1.27;;;;;;;;;;5071862;28;20070;-34
2023/10/30 02:01:35;;;;;;;2.33;1.20;;;19.30;80.60;;;;;;5060839;28;20084;-34
2023/10/30 02:04:02;;;;;;;3.22;1.20;;;19.70;81.10;;;;;;5051421;28;20456;-33
2023/10/30 02:06:29;;;;;;;2.85;1.40;;;19.70;81.20;;;;;;5051935;28;20410;-33
2023/10/30 02:08:57;;;;;;;3.38;1.52;;;;;;;;;;5051583;28;20468;-31
2023/10/30 02:11:23;;;;;;;3.45;1.27;;;19.10;80.80;;;;;;5051697;28;20052;-33
2023/10/30 02:13:56;;;;;;;4.22;1.30;;;19.40;69.90;;;;;;5051697;28;20048;-33
2023/10/30 02:16:23;;;;;;;4.45;1.27;;;19.50;80.80;;;;;;5051638;28;20126;-34
2023/10/30 02:18:51;;;;;;;2.45;1.15;;;19.30;62.20;;;;;;5051080;28;20406;-32
2023/10/30 02:21:18;;;;;;;2.65;1.20;;;;;;;;;;5051746;28;20161;-31
2023/10/30 02:23:45;;;;;;;2.83;1.23;;;;;;;;;;5051551;28;20563;-34
2023/10/30 02:26:13;;;;;;;2.88;1.17;;;19.20;62.20;;;;;;5051432;28;20110;-33
2023/10/30 02:28:41;;;;;;;2.45;1.40;;;;;;;;;;5051385;28;20099;-34
2023/10/30 02:31:07;;;;;;;4.65;1.30;;;19.50;80.80;;;;;;5051818;28;20126;-34
2023/10/30 02:33:34;;;;;;;2.45;1.40;;;19.00;81.00;;;;;;5051688;28;20048;-35
2023/10/30 02:36:01;;;;;;;2.45;1.10;;;;;;;;;;5057296;28;20136;-34
2023/10/30 02:38:28;;;;;;;2.58;1.38;;;20.20;81.70;;;;;;5095820;28;20044;-34
2023/10/30 02:40:55;;;;;;;3.92;1.30;;;;;;;;;;5095744;28;20097;-32
2023/10/30 02:43:23;;;;;;;1.77;1.13;;;18.90;81.00;;;;;;5095750;28;20459;-35
2023/10/30 02:45:50;;;;;;;3.42;1.40;;;;;;;;;;5095827;28;20093;-34
2023/10/30 02:48:17;;;;;;;2.50;1.30;;;19.70;66.80;;;;;;5082729;28;20128;-35
2023/10/30 02:50:44;;;;;;;2.30;1.33;;;;;;;;;;5075658;28;20106;-34
2023/10/30 02:53:11;;;;;;;2.42;1.20;;;;;;;;;;5075147;28;20053;-32
2023/10/30 02:55:38;;;;;;;3.53;1.30;;;19.40;80.90;;;;;;5075190;28;20493;-38
2023/10/30 02:58:05;;;;;;;2.10;1.00;;;19.40;78.40;;;;;;5075025;28;20405;-34
2023/10/30 03:00:33;;;;;;;2.13;1.20;;;18.80;66.70;;;;;;5072881;28;20555;-31
2023/10/30 03:03:00;;;;;;;2.50;1.33;;;;;;;;;;5055124;28;20482;-35
2023/10/30 03:05:27;;;;;;;3.25;1.20;;;18.60;80.90;;;;;;5055061;28;20094;-33
2023/10/30 03:07:54;;;;;;;3.45;1.30;;;;;;;;;;5054744;28;20085;-35
2023/10/30 03:10:21;;;;;;;1.40;0.95;;;19.10;69.20;;;;;;5055001;28;20048;-34
2023/10/30 03:12:48;;;;;;;1.77;1.08;;;18.00;75.80;;;;;;5054939;28;20540;-35
2023/10/30 03:15:15;;;;;;;3.03;1.42;;;19.00;81.00;;;;;;5055026;28;20402;-35
2023/10/30 03:17:43;;;;;;;4.88;1.33;;;19.10;62.50;;;;;;5054772;28;20053;-34
2023/10/30 03:20:11;;;;;;;4.18;1.40;;;18.90;75.60;;;;;;5054692;28;20088;-34
2023/10/30 03:22:39;;;;;;;2.85;1.25;;;;;;;;;;5054880;28;20083;-34
2023/10/30 03:25:06;;;;;;;2.65;1.15;;;18.90;81.30;;;;;;5054639;28;20452;-38
2023/10/30 03:27:33;;;;;;;2.60;1.27;;;18.90;81.00;;;;;;5054658;28;20076;-35
2023/10/30 03:30:00;;;;;;;2.00;1.27;;;19.30;81.60;;;;;;5054682;28;20072;-34
2023/10/30 03:32:26;;;;;;;3.05;1.20;;;19.00;72.50;;;;;;5054799;28;20125;-33
2023/10/30 03:34:54;;;;;;;3.30;1.58;;;18.90;81.10;;;;;;5054635;28;20081;-36
2023/10/30 03:37:22;;;;;;;2.38;1.10;;;;;;;;;;5079379;28;20048;-32
2023/10/30 03:39:48;;;;;;;2.45;1.20;;;19.40;65.00;;;;;;5094659;28;20047;-33
2023/10/30 03:42:15;;;;;;;4.22;1.10;;;20.00;82.00;;;;;;5094699;28;20052;-38
2023/10/30 03:44:42;;;;;;;3.03;1.63;;;19.40;81.80;;;;;;5080391;28;20072;-36
2023/10/30 03:47:09;;;;;;;4.00;1.20;;;18.90;69.80;;;;;;5073691;28;20048;-34
2023/10/30 03:49:36;;;;;;;3.92;1.48;;;;;;;;;;5073566;28;20048;-38
2023/10/30 03:52:04;;;;;;;2.90;1.40;;;19.00;62.60;;;;;;5074181;28;20514;-32
2023/10/30 03:54:31;;;;;;;2.90;1.27;;;18.30;69.80;;;;;;5074278;28;20048;-35
2023/10/30 03:56:58;;;;;;;2.72;1.40;;;18.00;80.70;;;;;;5074457;28;20080;-34
2023/10/30 03:59:24;;;;;;;3.08;1.40;;;18.50;81.40;;;;;;5074005;28;20075;-35
2023/10/30 04:01:52;;;;;;;3.58;1.50;;;;;;;;;;5060919;28;20052;-35
2023/10/30 04:04:18;;;;;;;2.38;1.30;;;18.50;72.80;;;;;;5053831;28;20049;-34
2023/10/30 04:06:45;;;;;;;2.42;1.20;;;;;;;;;;5054031;28;20084;-33
2023/10/30 04:09:13;;;;;;;3.20;1.05;;;18.50;81.10;;;;;;5053900;28;20126;-34
2023/10/30 04:11:40;;;;;;;3.15;1.38;;;18.80;81.70;;;;;;5069598;28;20102;-36
2023/10/30 04:14:07;;;;;;;3.75;1.20;;;;;;;;;;5073787;28;20045;-31
2023/10/30 04:16:34;;;;;;;2.53;1.20;;;18.80;81.70;;;;;;5073932;28;20170;-36
2023/10/30 04:19:01;;;;;;;3.28;1.30;;;19.10;79.20;;;;;;5073426;28;20110;-36
2023/10/30 04:21:28;;;;;;;2.63;1.20;;;20.00;70.70;;;;;;5073800;28;20048;-34
2023/10/30 04:23:55;;;;;;;2.03;1.13;;;18.90;81.50;;;;;;5073861;28;20128;-33
2023/10/30 04:26:23;;;;;;;3.72;1.20;;;18.80;62.70;;;;;;5073628;28;20106;-35
2023/10/30 04:28:50;;;;;;;3.13;1.30;;;19.80;76.40;;;;;;5073293;28;20070;-37
2023/10/30 04:31:17;;;;;;;4.78;1.55;;;18.90;81.80;;;;;;5073431;28;20106;-36
2023/10/30 04:33:44;;;;;;;2.63;1.30;;;;;;;;;;5073407;28;20048;-34
2023/10/30 04:36:12;;;;;;;3.67;1.38;;;18.70;81.30;;;;;;5075902;28;20097;-33
2023/10/30 04:38:39;;;;;;;3.25;1.20;;;19.70;82.10;;;;;;5093615;28;20070;-36
2023/10/30 04:41:06;;;;;;;2.42;1.25;;;;;;;;;;5078059;28;20106;-31
2023/10/30 04:43:34;;;;;;;3.38;1.38;;;19.30;82.20;;;;;;5073229;28;20098;-34
2023/10/30 04:46:01;;;;;;;2.20;1.15;;;;;;;;;;5072853;28;20432;-37
2023/10/30 04:48:30;;;;;;;2.78;1.15;;;;;;;;;;5073035;28;20131;-36
2023/10/30 04:50:57;;;;;;;2.55;1.10;;;;;;;;;;5073232;28;20489;-34
2023/10/30 04:53:24;;;;;;;2.85;1.23;;;;;;;;;;5073110;28;20052;-33
2023/10/30 04:55:51;;;;;;;2.38;1.13;;;19.90;67.60;;;;;;5072965;28;20520;-31
2023/10/30 04:58:17;;;;;;;4.10;1.40;;;18.40;81.80;;;;;;5071669;28;20485;-34
2023/10/30 05:00:46;;;;;;;2.03;1.48;;;18.50;62.80;;;;;;5068796;28;20041;-36
2023/10/30 05:03:13;;;;;;;2.75;1.52;;;;;;;;;;5053068;28;20103;-32
2023/10/30 05:05:40;;;;;;;2.25;1.33;;;19.00;81.90;;;;;;5052491;28;20583;-35
2023/10/30 05:08:06;;;;;;;3.10;1.25;;;19.20;82.00;;;;;;5052589;28;20643;-34
2023/10/30 05:10:33;;;;;;;2.88;1.30;;;18.70;71.90;;;;;;5052728;28;20559;-33
2023/10/30 05:13:00;;;;;;;2.85;1.27;;;18.80;82.20;;;;;;5052725;28;20045;-33
2023/10/30 05:15:27;;;;;;;3.42;1.30;;;;;;;;;;5052520;28;20114;-37
2023/10/30 05:17:55;;;;;;;2.15;1.20;;;18.80;82.10;;;;;;5052345;28;20048;-32
2023/10/30 05:20:22;;;;;;;3.78;1.38;;;17.70;72.60;;;;;;5052561;28;20057;-34
2023/10/30 05:22:49;;;;;;;3.63;1.30;;;18.70;81.80;;;;;;5052555;28;20071;-33
2023/10/30 05:25:16;;;;;;;2.53;1.10;;;;;;;;;;5052331;28;20103;-31
2023/10/30 05:27:44;;;;;;;2.40;1.20;;;;;;;;;;5052294;28;20417;-35
2023/10/30 05:30:11;;;;;;;4.35;1.25;;;18.60;82.30;;;;;;5052281;28;20052;-36
2023/10/30 05:32:38;;;;;;;2.75;1.20;;;19.80;82.50;;;;;;5052236;28;20076;-37
2023/10/30 05:35:07;;;;;;;2.75;1.23;;;18.40;81.80;;;;;;5052361;28;20053;-35
2023/10/30 05:37:34;;;;;;;1.83;1.13;;;17.70;81.80;;;;;;5085771;28;20096;-36
2023/10/30 05:40:01;;;;;;;3.22;1.27;;;18.50;81.90;;;;;;5092544;28;20044;-33
2023/10/30 05:42:28;;;;;;;2.88;1.40;;;;;;;;;;5092329;28;20366;-33
2023/10/30 05:44:55;;;;;;;2.35;1.10;;;;;;;;;;5092290;28;20043;-33
2023/10/30 05:47:22;;;;;;;3.20;1.10;;;;;;;;;;5092301;28;20504;-33
2023/10/30 05:49:49;;;;;;;2.28;1.17;;;18.60;82.00;;;;;;5092393;28;20048;-35
2023/10/30 05:52:17;;;;;;;3.40;1.17;;;17.60;81.60;;;;;;5092011;28;20048;-33
2023/10/30 05:54:44;;;;;;;3.47;1.25;;;;;;;;;;5092253;28;20044;-29
2023/10/30 05:57:11;;;;;;;2.22;1.10;;;18.50;82.00;;;;;;5092075;28;20457;-29
2023/10/30 05:59:38;;;;;;;2.88;1.10;;;18.40;82.00;;;;;;5092176;28;20063;-29
2023/10/30 06:02:05;;;;;;;2.10;1.35;;;18.80;65.20;;;;;;5076695;28;20102;-29
2023/10/30 06:04:31;;;;;;;2.45;1.20;;;18.30;82.00;;;;;;5071979;28;20052;-38
2023/10/30 06:06:58;;;;;;;2.38;1.20;;;17.90;81.80;;;;;;5071900;28;20052;-33
2023/10/30 06:09:26;;;;;;;4.30;1.30;;;18.70;75.70;;;;;;5071306;28;20049;-35
2023/10/30 06:11:53;;;;;;;2.90;1.10;;;18.20;82.00;;;;;;5054186;28;20146;-33
2023/10/30 06:14:21;;;;;;;4.43;1.20;;;18.30;82.50;;;;;;5051793;28;20053;-36
2023/10/30 06:16:48;;;;;;;2.10;1.10;;;18.70;69.30;;;;;;5051898;28;20128;-35
2023/10/30 06:19:15;;;;;;;2.53;1.30;;;;;;;;;;5051392;28;20083;-33
2023/10/30 06:21:44;;;;;;;2.47;1.20;;;;;;;;;;5051679;28;20076;-34
2023/10/30 06:24:11;;;;;;;3.00;1.25;;;;;;;;;;5051237;28;20900;-33
2023/10/30 06:26:40;;;;;;;2.30;1.10;;;18.70;64.50;;;;;;5051769;28;20045;-36
2023/10/30 06:29:07;;;;;;;1.50;1.02;;;18.10;69.10;;;;;;5051435;28;20055;-34
2023/10/30 06:31:35;;;;;;;3.55;1.23;;;18.60;74.50;;;;;;5051708;28;20049;-35
2023/10/30 06:34:02;;;;;;;2.85;1.45;;;18.70;68.40;;;;;;5089125;28;20416;-33
2023/10/30 06:36:29;;;;;;;2.05;1.10;;;18.20;82.20;;;;;;5091286;28;20040;-35
2023/10/30 06:38:56;;;;;;;2.90;1.20;;;;;;;;;;5091212;28;20079;-34
2023/10/30 06:41:24;;;;;;;3.50;1.30;;;;;;;;;;5091928;28;20091;-35
2023/10/30 06:43:52;;;;;;;2.78;1.20;;;18.20;82.60;;;;;;5091718;28;20052;-37
2023/10/30 06:46:18;;;;;;;2.53;1.20;;;18.60;82.40;;;;;;5091536;28;20109;-35
2023/10/30 06:48:46;;;;;;;3.80;1.50;;;;;;;;;;5091545;28;20052;-36
2023/10/30 06:51:12;;;;;;;2.83;1.10;;;18.80;82.50;;;;;;5071761;28;20048;-32
2023/10/30 06:53:39;;;;;;;2.25;1.10;;;17.30;81.70;;;;;;5061927;28;20067;-35
2023/10/30 06:56:07;;;;;;;2.28;1.20;;;19.60;71.80;;;;;;5054162;28;20049;-35
2023/10/30 06:58:34;;;;;;;1.80;1.02;;;;;;;;;;5051243;28;20045;-36
2023/10/30 07:01:05;;;;;;;4.40;1.45;;;18.10;82.30;;;;;;5057460;28;20101;-34
2023/10/30 07:03:33;;;;;;;3.05;1.48;;;;;;;;;;5071333;28;20048;-31
2023/10/30 07:06:00;;;;;;;3.70;1.25;;;19.00;83.30;;;;;;5071267;28;20051;-34
2023/10/30 07:08:27;;;;;;;3.15;1.30;;;19.10;80.30;;;;;;5071352;28;20048;-34
2023/10/30 07:10:55;;;;;;;2.05;1.15;;;19.50;83.10;;;;;;5061963;28;20115;-35
2023/10/30 07:13:22;;;;;;;2.35;1.20;;;;;;;;;;5050951;28;20425;-35
2023/10/30 07:15:49;;;;;;;2.22;1.17;;;18.30;82.80;;;;;;5051170;28;20111;-36
2023/10/30 07:18:17;;;;;;;4.13;1.30;;;18.10;63.60;;;;;;5052273;28;20571;-34
2023/10/30 07:20:44;;;;;;;2.15;1.00;;;18.70;82.90;;;;;;5054176;28;20118;-37
2023/10/30 07:23:11;;;;;;;2.47;1.25;;;;;;;;;;5054457;28;20494;-33
2023/10/30 07:25:38;;;;;;;3.15;1.65;;;18.60;65.30;;;;;;5070274;28;20143;-37
2023/10/30 07:28:05;;;;;;;3.83;1.17;;;;;;;;;;5073978;28;20052;-31
2023/10/30 07:30:32;;;;;;;4.25;1.52;;;19.40;83.30;;;;;;5074865;28;20053;-35
2023/10/30 07:33:02;;;;;;;2.78;1.20;;;;;;;;;;5074854;28;20374;-33
2023/10/30 07:35:30;;;;;;;3.38;1.27;;;18.30;63.50;;;;;;5074853;28;20174;-34
2023/10/30 07:37:57;;;;;;;2.67;1.10;;;;;;;;;;5091691;28;20083;-32
2023/10/30 07:40:26;;;;;;;2.55;1.10;;;18.20;82.40;;;;;;5095052;28;20044;-35
2023/10/30 07:42:53;;;;;;;2.28;1.08;;;18.30;82.80;;;;;;5094848;28;20106;-34
2023/10/30 07:45:20;;;;;;;3.38;1.10;;;;;;;;;;5094668;28;20048;-31
2023/10/30 07:47:47;;;;;;;2.08;1.00;;;;;;;;;;5094797;28;20052;-34
2023/10/30 07:50:14;;;;;;;2.55;1.10;;;19.10;82.30;;;;;;5094762;28;20492;-28
2023/10/30 07:52:43;;;;;;;4.35;1.20;;;18.90;63.30;;;;;;5094334;28;20618;-27
2023/10/30 07:55:10;;;;;;;3.13;1.20;;;;;;;;;;5094681;28;20052;-33
2023/10/30 07:57:37;;;;;;;1.95;0.95;;;18.40;81.50;;;;;;5094641;28;20044;-28
2023/10/30 08:00:04;;;;;;;3.55;1.08;;;19.20;63.00;;;;;;5094946;28;20048;-28
2023/10/30 08:02:31;;;;;;;2.17;1.00;;;19.40;81.60;;;;;;5058460;28;20072;-30
2023/10/30 08:04:59;;;;;;;3.50;1.20;;;19.50;64.50;;;;;;5057813;28;20095;-31
2023/10/30 08:07:26;;;;;;;1.50;1.00;;;;;;;;;;5065244;28;20054;-33
2023/10/30 08:09:55;;;;;;;3.42;1.30;;;19.50;81.00;;;;;;5066243;28;20094;-29
2023/10/30 08:12:23;;;;;;;1.65;1.08;;;;;;;;;;5061796;28;20076;-32
2023/10/30 08:14:52;;;;;;;2.53;1.10;;;19.70;81.10;;;;;;5053931;28;20687;-28
2023/10/30 08:17:18;;;;;;;2.30;1.30;;;19.30;71.70;;;;;;5053867;28;20406;-29
2023/10/30 08:19:45;;;;;;;3.03;1.20;;;20.00;80.70;;;;;;5053902;28;20472;-28
2023/10/30 08:22:12;;;;;;;2.10;1.05;;;;;;;;;;5054037;28;20743;-29
2023/10/30 08:24:39;;;;;;;2.65;1.10;;;20.00;80.50;;;;;;5060127;28;20098;-29
2023/10/30 08:27:07;;;;;;;3.28;1.33;;;20.20;80.80;;;;;;5093911;28;20132;-28
2023/10/30 08:29:34;;;;;;;3.33;1.15;;;20.80;80.90;;;;;;5082766;28;20049;-28
2023/10/30 08:32:01;;;;;;;1.50;1.10;;;19.80;61.70;;;;;;5065206;28;20409;-31
2023/10/30 08:34:27;;;;;;;2.05;1.27;;;20.80;80.10;;;;;;5064096;28;20052;-30
2023/10/30 08:36:54;;;;;;;2.17;1.00;;;20.20;79.80;;;;;;5063422;28;20041;-28
2023/10/30 08:39:21;;;;;;;1.77;1.00;;;19.60;69.90;;;;;;5061881;28;20056;-31
2023/10/30 08:41:48;;;;;;;2.58;1.10;;;20.50;79.70;;;;;;5063854;28;20049;-29
2023/10/30 08:44:16;;;;;;;1.67;0.98;;;20.20;79.70;;;;;;5059539;28;20044;-30
2023/10/30 08:46:43;;;;;;;1.95;1.10;;;;;;;;;;5058401;28;20073;-30
2023/10/30 08:49:10;;;;;;;2.28;1.00;;;20.50;79.80;;;;;;5060589;28;20041;-29
2023/10/30 08:51:40;;;;;;;2.45;1.10;;;20.50;79.30;;;;;;5068148;28;20049;-29
2023/10/30 08:54:07;;;;;;;1.77;1.00;;;;;;;;;;5054818;28;20056;-31
2023/10/30 08:56:34;;;;;;;1.90;1.02;;;20.50;79.40;;;;;;5063194;28;20048;-29
2023/10/30 08:59:03;;;;;;;1.85;1.17;;;20.80;79.10;;;;;;5057794;28;21524;-29
2023/10/30 09:01:32;;;;;;;2.38;1.10;;;20.90;60.90;;;;;;5061491;28;20052;-32
2023/10/30 09:03:59;;;;;;;1.98;1.00;;;20.90;79.30;;;;;;5062130;28;21409;-31
2023/10/30 09:06:27;;;;;;;3.65;1.30;;;;;;;;;;5058032;28;20049;-30
2023/10/30 09:08:54;;;;;;;1.33;0.90;;;;;;;;;;5052854;28;20460;-30
2023/10/30 09:11:22;;;;;;;1.73;0.90;;;;;;;;;;5056856;28;20055;-29
2023/10/30 09:13:49;;;;;;;1.67;1.05;;;20.20;78.30;;;;;;5053028;28;20049;-32
2023/10/30 09:16:15;;;;;;;2.40;0.90;;;22.20;79.30;;;;;;5053261;28;20226;-36
2023/10/30 09:18:43;;;;;;;2.33;1.20;;;21.20;60.50;;;;;;5051512;28;20378;-35
2023/10/30 09:21:10;;;;;;;3.28;1.15;;;20.70;70.00;;;;;;5056853;28;20109;-34
2023/10/30 09:23:37;;;;;;;2.67;1.13;;;21.40;61.10;;;;;;5070425;28;20076;-33
2023/10/30 09:26:04;;;;;;;2.28;1.00;;;21.40;78.60;;;;;;5064212;28;20044;-36
2023/10/30 09:28:31;;;;;;;1.88;0.95;;;21.50;78.20;;;;;;5052517;28;20045;-35
2023/10/30 09:30:57;;;;;;;1.85;0.82;;;22.10;78.50;;;;;;5064273;28;20083;-37
2023/10/30 09:33:25;;;;;;;2.83;1.20;;;;;;;;;;5072303;28;20052;-35
2023/10/30 09:35:53;;;;;;;1.20;1.00;;;20.40;77.60;;;;;;5071982;28;20044;-37
2023/10/30 09:38:19;;;;;;;1.67;1.10;;;21.20;78.00;;;;;;5092762;28;20097;-36
2023/10/30 09:40:47;;;;;;;1.95;0.98;;;21.20;77.90;;;;;;5092544;28;20104;-35
2023/10/30 09:43:14;;;;;;;2.78;0.93;;;;;;;;;;5080128;28;20474;-35
2023/10/30 09:45:41;;;;;;;1.52;0.90;;;;;;;;;;5068632;28;20130;-33
2023/10/30 09:48:08;;;;;;;1.77;0.98;;;21.20;77.70;;;;;;5054360;28;20053;-37
2023/10/30 09:50:35;;;;;;;2.05;1.10;;;;;;;;;;5050486;28;20132;-35
2023/10/30 09:53:04;;;;;;;2.35;1.00;;;21.60;77.40;;;;;;5051627;28;20079;-38
2023/10/30 09:55:31;;;;;;;3.30;1.30;;;;;;;;;;5051320;28;20151;-35
2023/10/30 09:57:59;;;;;;;2.25;1.20;;;;;;;;;;5051215;28;20049;-36
2023/10/30 10:00:25;;;;;;;2.33;1.10;;;;;;;;;;5052768;28;20717;-34
2023/10/30 10:02:52;;;;;;;2.85;1.30;;;22.00;77.60;;;;;;5070444;28;20052;-38
2023/10/30 10:05:19;;;;;;;3.85;1.15;;;;;;;;;;5071887;28;20048;-34
2023/10/30 10:07:46;;;;;;;2.30;1.00;;;21.00;77.90;;;;;;5072387;28;20067;-38
2023/10/30 10:10:18;;;;;;;2.85;1.00;;;21.00;77.90;;;;;;5068202;28;20107;-35
2023/10/30 10:12:44;;;;;;;3.22;1.13;;;22.10;78.60;;;;;;5052030;28;20140;-34
2023/10/30 10:15:12;;;;;;;2.13;1.02;;;;;;;;;;5051595;28;20076;-32
2023/10/30 10:17:42;;;;;;;2.53;1.17;;;22.00;78.50;;;;;;5066240;28;20048;-28
2023/10/30 10:20:10;;;;;;;1.50;1.00;;;21.70;77.60;;;;;;5092066;28;20451;-29
2023/10/30 10:22:37;;;;;;;3.97;1.10;;;21.20;61.50;;;;;;5092327;28;20044;-31
2023/10/30 10:25:04;;;;;;;2.13;1.00;;;21.40;59.90;;;;;;5091881;28;20060;-32
2023/10/30 10:27:32;;;;;;;2.50;1.00;;;21.20;77.80;;;;;;5091962;28;20098;-30
2023/10/30 10:29:59;;;;;;;2.88;0.98;;;21.40;78.10;;;;;;5091869;28;20055;-29
2023/10/30 10:32:26;;;;;;;2.60;1.27;;;21.20;65.30;;;;;;5092098;28;20109;-31
2023/10/30 10:34:54;;;;;;;2.65;1.23;;;20.90;78.40;;;;;;5092065;28;20043;-28
2023/10/30 10:37:20;;;;;;;1.77;1.10;;;22.20;69.70;;;;;;5091128;28;20404;-30
2023/10/30 10:39:48;;;;;;;1.98;0.98;;;21.30;77.80;;;;;;5091868;28;20462;-28
2023/10/30 10:42:16;;;;;;;4.43;1.10;;;21.40;78.30;;;;;;5091771;28;20051;-35
2023/10/30 10:44:44;;;;;;;3.33;1.00;;;21.20;60.20;;;;;;5081525;28;20107;-34
2023/10/30 10:47:11;;;;;;;2.42;1.20;;;21.60;78.60;;;;;;5060821;28;20037;-37
2023/10/30 10:49:38;;;;;;;4.07;1.08;;;;;;;;;;5060183;28;20049;-35
2023/10/30 10:52:06;;;;;;;1.45;0.95;;;21.00;78.20;;;;;;5059991;28;20051;-36
2023/10/30 10:54:35;;;;;;;2.33;1.10;;;21.20;78.90;;;;;;5059412;28;20048;-30
2023/10/30 10:57:02;;;;;;;3.40;1.17;;;21.30;78.30;;;;;;5064857;28;20054;-29
2023/10/30 10:59:29;;;;;;;2.03;1.08;;;;;;;;;;5064740;28;20106;-34
2023/10/30 11:01:57;;;;;;;2.78;1.50;;;22.20;79.10;;;;;;5066275;28;20052;-28
2023/10/30 11:04:24;;;;;;;2.60;1.30;;;21.50;78.50;;;;;;5064102;28;20045;-28
2023/10/30 11:06:53;;;;;;;2.58;1.20;;;21.00;60.50;;;;;;5064649;28;20037;-31
2023/10/30 11:09:24;;;;;;;1.70;1.10;;;20.80;78.50;;;;;;5064879;28;20105;-29
2023/10/30 11:11:53;;;;;;;1.85;1.08;;;20.70;69.30;;;;;;5064185;28;20040;-28
2023/10/30 11:14:27;;;;;;;1.65;0.88;;;20.80;79.20;;;;;;5081948;28;20100;-29
2023/10/30 11:16:56;;;;;;;2.65;1.15;;;21.60;78.80;;;;;;5073884;28;20098;-29
2023/10/30 11:19:25;;;;;;;1.95;1.08;;;20.80;78.50;;;;;;5062110;28;20050;-29
2023/10/30 11:21:52;;;;;;;8.68;1.20;;;;;;;;;;5057181;28;20103;-29
2023/10/30 11:24:38;;;;;;;4.38;1.30;;;20.40;79.30;;;;;;5061577;28;20332;-28
2023/10/30 11:27:35;;;;;;;2.88;1.10;;;21.50;64.80;;;;;;5074797;28;20412;-29
2023/10/30 11:30:07;;;;;;;2.70;1.20;;;20.50;72.70;;;;;;5074714;28;20052;-29
2023/10/30 11:32:38;;;;;;;3.20;1.25;;;20.50;60.90;;;;;;5074809;28;20056;-29
2023/10/30 11:35:07;;;;;;;7.53;1.20;;;20.40;78.80;;;;;;5074793;28;20063;-30
2023/10/30 11:37:37;;;;;;;2.25;1.30;;;21.30;79.30;;;;;;5088439;28;20699;-29
2023/10/30 11:40:07;;;;;;;2.50;1.13;;;20.70;61.10;;;;;;5094837;28;20048;-29
2023/10/30 11:42:39;;;;;;;2.15;1.30;;;20.60;79.40;;;;;;5095007;28;20047;-29
2023/10/30 11:45:19;;;;;;;6.88;1.42;;;20.70;61.10;;;;;;5083178;28;20045;-30
2023/10/30 11:47:49;;;;;;;7.38;1.58;;;20.50;65.10;;;;;;5073627;28;20045;-28
2023/10/30 11:50:19;;;;;;;2.25;1.13;;;21.10;79.40;;;;;;5074169;28;20052;-31
2023/10/30 11:52:46;;;;;;;2.03;0.98;;;21.00;79.80;;;;;;5074416;28;20508;-29
2023/10/30 11:55:13;;;;;;;3.78;1.20;;;20.50;79.10;;;;;;5061973;28;20083;-29
2023/10/30 11:57:40;;;;;;;3.38;0.98;;;20.60;80.10;;;;;;5073438;28;20114;-28
2023/10/30 12:00:07;;;;;;;4.80;1.33;;;20.50;61.30;;;;;;5074254;28;20102;-31
2023/10/30 12:02:40;;;;;;;2.92;1.13;;;20.50;61.30;;;;;;5055174;28;20095;-33
2023/10/30 12:05:07;;;;;;;3.17;1.13;;;20.10;61.20;;;;;;5072329;28;20051;-31
2023/10/30 12:07:36;;;;;;;9.77;1.45;;;20.70;80.40;;;;;;5073427;28;20174;-28
2023/10/30 12:10:03;;;;;;;3.40;1.10;;;;;;;;;;5077837;28;20043;-34
2023/10/30 12:12:31;;;;;;;3.35;1.20;;;19.50;64.70;;;;;;5074289;28;20048;-36
2023/10/30 12:14:59;;;;;;;3.97;1.20;;;20.10;79.60;;;;;;5074058;28;20048;-35
2023/10/30 12:17:25;;;;;;;3.65;1.17;;;20.60;79.20;;;;;;5073842;28;20048;-36
2023/10/30 12:19:52;;;;;;;2.92;1.30;;;20.10;79.60;;;;;;5073793;28;20162;-35
2023/10/30 12:22:19;;;;;;;3.00;1.00;;;;;;;;;;5073888;28;20084;-35
2023/10/30 12:24:47;;;;;;;3.25;1.23;;;20.40;79.40;;;;;;5073992;28;20080;-37
2023/10/30 12:27:21;;;;;;;3.47;1.30;;;20.40;79.30;;;;;;5065023;28;20091;-35
2023/10/30 12:29:52;;;;;;;3.65;1.20;;;20.20;76.70;;;;;;5056121;28;20080;-35
2023/10/30 12:32:18;;;;;;;2.42;1.02;;;20.30;79.90;;;;;;5054007;28;20055;-35
2023/10/30 12:34:46;;;;;;;1.75;1.00;;;;;;;;;;5053219;28;20052;-35
2023/10/30 12:37:23;;;;;;;3.55;1.10;;;20.40;61.50;;;;;;5074792;28;20047;-37
2023/10/30 12:40:04;;;;;;;4.88;1.08;;;21.30;74.20;;;;;;5093643;28;20128;-34
2023/10/30 12:42:33;;;;;;;3.40;1.30;;;20.10;80.30;;;;;;5093714;28;20161;-38
2023/10/30 12:45:00;;;;;;;2.40;0.90;;;20.20;68.20;;;;;;5093667;28;20047;-30
2023/10/30 12:47:27;;;;;;;3.65;1.20;;;20.00;70.90;;;;;;5093268;28;20059;-29
2023/10/30 12:49:54;;;;;;;2.78;1.10;;;19.20;66.80;;;;;;5093113;28;20515;-29
2023/10/30 12:52:21;;;;;;;2.28;1.15;;;20.50;76.10;;;;;;5093677;28;20091;-28
2023/10/30 12:54:47;;;;;;;5.30;1.20;;;19.90;79.60;;;;;;5093762;28;20400;-30
2023/10/30 12:57:16;;;;;;;2.72;0.93;;;19.30;67.80;;;;;;5093258;28;20413;-29
2023/10/30 12:59:42;;;;;;;3.95;1.17;;;19.90;68.60;;;;;;5093266;28;20408;-29
2023/10/30 13:02:09;;;;;;;4.45;1.30;;;20.50;79.90;;;;;;5077257;28;20048;-28
2023/10/30 13:04:36;;;;;;;2.17;1.02;;;20.30;79.80;;;;;;5073115;28;20050;-28
2023/10/30 13:07:03;;;;;;;4.38;1.48;;;20.60;71.00;;;;;;5085667;28;20093;-30
2023/10/30 13:09:29;;;;;;;2.58;1.10;;;20.30;79.60;;;;;;5093184;28;20089;-29
2023/10/30 13:11:56;;;;;;;2.72;1.13;;;20.30;80.00;;;;;;5074772;28;20087;-28
2023/10/30 13:14:24;;;;;;;2.03;1.00;;;20.00;70.70;;;;;;5072715;28;20048;-29